Time;durP1;ratioP1;P1;durP2;ratioP2;P2;SDS_P1;SDS_P2;PMS_P1;PMS_P2;Temp;Humidity;BMP_temperature;BMP_pressure;BME280_temperature;BME280_humidity;BME280_pressure;Samples;Min_cycle;Max_cycle;Signal;HPM_P1;HPM_P2
2022/05/22 00:00:45;;;;;;;5.32;4.05;;;;;;;22.28;50.31;94430.03;4176320;28;20053;-54
2022/05/22 00:02:47;;;;;;;6.80;3.97;;;;;;;22.27;50.07;94427.59;4171681;28;20166;-52
2022/05/22 00:04:48;;;;;;;5.00;4.05;;;;;;;22.25;50.21;94424.34;4167201;28;20121;-51
2022/05/22 00:06:50;;;;;;;8.27;3.90;;;;;;;22.27;50.29;94427.59;4176283;28;20106;-53
2022/05/22 00:08:52;;;;;;;4.82;3.72;;;;;;;22.26;50.20;94433.94;4174730;28;20048;-52
2022/05/22 00:10:54;;;;;;;9.20;4.10;;;;;;;22.23;50.43;94426.44;4176471;28;20049;-54
2022/05/22 00:12:56;;;;;;;7.20;3.97;;;;;;;22.22;50.22;94430.97;4160726;28;20123;-54
2022/05/22 00:14:57;;;;;;;7.70;4.28;;;;;;;22.20;50.51;94425.03;4164233;28;20470;-55
2022/05/22 00:16:59;;;;;;;5.70;3.45;;;;;;;22.24;50.29;94428.03;4166887;28;20135;-51
2022/05/22 00:19:01;;;;;;;4.85;3.92;;;;;;;22.23;50.39;94423.75;4171562;28;20308;-53
2022/05/22 00:21:03;;;;;;;5.82;3.45;;;;;;;22.23;50.08;94423.75;4166169;28;20128;-52
2022/05/22 00:23:05;;;;;;;12.20;4.22;;;;;;;22.23;50.22;94418.44;4158243;28;20277;-53
2022/05/22 00:25:10;;;;;;;6.28;3.70;;;;;;;22.20;50.02;94418.84;4159494;28;20556;-53
2022/05/22 00:27:13;;;;;;;8.55;3.85;;;;;;;22.17;50.16;94414.81;4159627;28;20501;-53
2022/05/22 00:29:15;;;;;;;5.18;3.42;;;;;;;22.18;50.51;94415.66;4159574;28;20046;-55
2022/05/22 00:31:17;;;;;;;6.05;4.07;;;;;;;22.17;50.52;94408.69;4159533;28;20049;-56
2022/05/22 00:33:18;;;;;;;5.05;3.97;;;;;;;22.16;50.38;94407.88;4164081;28;20973;-55
2022/05/22 00:35:20;;;;;;;5.13;4.10;;;;;;;22.14;50.52;94411.84;4176025;28;20607;-53
2022/05/22 00:37:22;;;;;;;5.32;3.75;;;;;;;22.12;50.33;94406.72;4174431;28;20064;-51
2022/05/22 00:39:24;;;;;;;5.10;3.67;;;;;;;22.11;50.72;94412.28;4163931;28;20115;-53
2022/05/22 00:41:26;;;;;;;7.78;3.70;;;;;;;22.13;50.55;94408.34;4159417;28;20135;-53
2022/05/22 00:43:31;;;;;;;6.18;3.50;;;;;;;22.08;50.33;94411.72;4158933;28;20422;-53
2022/05/22 00:45:33;;;;;;;5.95;3.70;;;;;;;22.05;50.67;94412.19;4159368;28;20424;-53
2022/05/22 00:47:35;;;;;;;6.07;3.90;;;;;;;22.01;50.61;94411.06;4158982;28;20068;-55
2022/05/22 00:49:41;;;;;;;5.05;3.65;;;;;;;21.98;50.77;94411.50;4159157;28;20107;-53
2022/05/22 00:52:05;;;;;;;6.90;3.92;;;;;;;22.00;50.58;94413.94;4159322;28;20152;-50
2022/05/22 00:54:14;;;;;;;8.05;3.80;;;;;;;21.97;50.69;94411.78;4158006;28;20072;-54
2022/05/22 00:56:21;;;;;;;7.57;4.10;;;;;;;21.94;50.97;94407.72;4159344;28;20486;-53
2022/05/22 00:58:24;;;;;;;7.40;3.38;;;;;;;21.88;51.17;94401.47;4157543;28;20112;-52
2022/05/22 01:00:32;;;;;;;6.32;3.80;;;;;;;21.85;51.12;94409.94;4157584;28;20075;-54
2022/05/22 01:04:54;;;;;;;7.28;3.90;;;;;;;21.81;51.24;94405.31;4159778;28;20466;-50
2022/05/22 01:06:56;;;;;;;6.15;3.60;;;;;;;21.73;51.53;94403.84;4175501;28;20045;-54
2022/05/22 01:08:58;;;;;;;5.35;3.55;;;;;;;21.74;51.55;94407.31;4174566;28;20452;-53
2022/05/22 01:11:15;;;;;;;6.82;3.90;;;;;;;21.75;51.42;94406.28;4175569;28;20454;-54
2022/05/22 01:13:21;;;;;;;5.47;3.65;;;;;;;21.77;51.32;94406.81;4158855;28;20049;-51
2022/05/22 01:15:23;;;;;;;6.88;4.20;;;;;;;21.75;51.39;94412.41;4157733;28;20111;-54
2022/05/22 01:17:24;;;;;;;5.28;3.72;;;;;;;21.74;51.24;94404.63;4158582;28;20053;-53
2022/05/22 01:19:26;;;;;;;6.43;3.35;;;;;;;21.71;51.49;94407.78;4174084;28;20421;-55
2022/05/22 01:21:30;;;;;;;6.30;3.65;;;;;;;21.66;51.10;94398.63;4166150;28;20134;-55
2022/05/22 01:23:32;;;;;;;5.85;3.72;;;;;;;21.64;51.19;94410.59;4157291;28;20119;-54
2022/05/22 01:25:34;;;;;;;4.22;3.22;;;;;;;21.62;51.23;94402.81;4161540;28;20143;-52
2022/05/22 01:27:36;;;;;;;5.10;3.30;;;;;;;21.66;50.98;94409.28;4162105;28;20049;-54
2022/05/22 01:29:39;;;;;;;5.20;3.35;;;;;;;21.67;50.49;94399.44;4160995;28;20076;-51
2022/05/22 01:31:44;;;;;;;5.82;3.40;;;;;;;21.59;50.45;94403.25;4161885;28;20057;-55
2022/05/22 01:33:46;;;;;;;5.63;3.17;;;;;;;21.56;50.25;94405.59;4170151;28;20049;-52
2022/05/22 01:35:48;;;;;;;7.30;3.40;;;;;;;21.58;50.11;94408.84;4171038;28;20115;-51
2022/05/22 01:37:50;;;;;;;7.43;3.53;;;;;;;21.58;49.71;94412.31;4173141;28;20118;-52
2022/05/22 01:39:52;;;;;;;6.07;3.65;;;;;;;21.57;49.45;94407.22;4162689;28;20112;-52
2022/05/22 01:41:54;;;;;;;5.93;3.45;;;;;;;21.52;49.03;94407.91;4172580;28;20517;-55
2022/05/22 01:43:56;;;;;;;5.07;2.90;;;;;;;21.53;48.97;94411.38;4178475;28;20138;-54
2022/05/22 01:45:58;;;;;;;3.85;2.92;;;;;;;21.52;48.59;94401.78;4178348;28;20118;-54
2022/05/22 01:48:00;;;;;;;4.47;3.58;;;;;;;21.52;48.19;94402.59;4178018;28;20057;-54
2022/05/22 01:50:02;;;;;;;5.35;3.00;;;;;;;21.50;47.39;94407.34;4178555;28;20114;-53
2022/05/22 01:52:04;;;;;;;6.43;3.17;;;;;;;21.51;46.53;94408.16;4177080;28;20049;-56
2022/05/22 01:54:06;;;;;;;4.03;2.88;;;;;;;21.50;46.40;94406.53;4178656;28;20669;-53
2022/05/22 01:56:08;;;;;;;6.20;2.80;;;;;;;21.52;45.80;94399.94;4177974;28;20482;-54
2022/05/22 01:58:10;;;;;;;4.10;2.90;;;;;;;21.54;45.45;94402.38;4178124;28;20640;-55
2022/05/22 02:00:15;;;;;;;7.80;3.03;;;;;;;21.47;44.80;94399.84;4178299;28;20082;-54
2022/05/22 02:02:17;;;;;;;3.63;2.70;;;;;;;21.53;44.58;94406.06;4177812;28;20110;-54
2022/05/22 02:04:19;;;;;;;8.77;2.70;;;;;;;21.50;44.25;94401.22;4177668;28;20053;-55
2022/05/22 02:06:20;;;;;;;4.45;2.50;;;;;;;21.52;44.03;94404.44;4178027;28;20615;-54
2022/05/22 02:08:22;;;;;;;5.15;2.60;;;;;;;21.51;43.93;94403.66;4176427;28;20473;-53
2022/05/22 02:10:24;;;;;;;4.60;2.38;;;;;;;21.53;44.06;94411.38;4177817;28;20049;-55
2022/05/22 02:12:26;;;;;;;3.95;2.40;;;;;;;21.52;43.75;94412.44;4166850;28;20102;-55
2022/05/22 02:14:28;;;;;;;5.40;2.40;;;;;;;21.55;43.22;94409.31;4161725;28;20053;-55
2022/05/22 02:16:29;;;;;;;2.97;2.22;;;;;;;21.54;42.57;94410.34;4161894;28;20126;-54
2022/05/22 02:18:31;;;;;;;3.15;2.25;;;;;;;21.53;42.48;94416.72;4161354;28;20052;-53
2022/05/22 02:20:33;;;;;;;5.35;2.60;;;;;;;21.55;42.17;94423.44;4161772;28;20307;-54
2022/05/22 02:22:43;;;;;;;4.68;2.30;;;;;;;21.55;42.33;94415.44;4163990;28;20061;-56
2022/05/22 02:24:53;;;;;;;5.72;2.22;;;;;;;21.55;42.12;94415.44;4173706;28;20063;-57
2022/05/22 02:26:55;;;;;;;4.03;2.30;;;;;;;21.56;42.07;94418.94;4177750;28;20069;-54
2022/05/22 02:28:56;;;;;;;5.75;2.17;;;;;;;21.55;41.61;94420.75;4177793;28;20495;-52
2022/05/22 02:31:00;;;;;;;4.45;2.33;;;;;;;21.53;41.47;94417.56;4176363;28;20162;-53
2022/05/22 02:33:03;;;;;;;2.55;1.90;;;;;;;21.50;41.15;94420.66;4177164;28;20068;-54
2022/05/22 02:35:06;;;;;;;4.13;2.20;;;;;;;21.44;40.83;94421.59;4177456;28;20060;-53
2022/05/22 02:37:08;;;;;;;5.47;2.42;;;;;;;21.41;41.12;94422.88;4175890;28;20057;-53
2022/05/22 02:39:10;;;;;;;3.47;2.10;;;;;;;21.36;40.60;94425.41;4167149;28;20134;-51
2022/05/22 02:41:15;;;;;;;5.50;2.00;;;;;;;21.32;40.44;94418.13;4168478;28;20045;-53
2022/05/22 02:43:17;;;;;;;6.53;2.05;;;;;;;21.31;40.76;94419.16;4177060;28;20126;-55
2022/05/22 02:45:24;;;;;;;3.92;1.92;;;;;;;21.34;40.25;94416.00;4177207;28;20106;-55
2022/05/22 02:47:25;;;;;;;3.58;2.20;;;;;;;21.35;39.96;94420.31;4176840;28;20106;-53
2022/05/22 02:49:27;;;;;;;8.40;2.33;;;;;;;21.36;39.69;94424.56;4177111;28;20045;-54
2022/05/22 02:51:29;;;;;;;3.78;2.10;;;;;;;21.39;39.22;94426.78;4177074;28;20115;-55
2022/05/22 02:53:32;;;;;;;6.93;2.20;;;;;;;21.32;38.91;94424.25;4175271;28;20128;-54
2022/05/22 02:55:33;;;;;;;4.97;1.70;;;;;;;21.30;38.46;94430.88;4177199;28;20072;-56
2022/05/22 02:57:37;;;;;;;2.35;1.80;;;;;;;21.30;38.14;94425.53;4177269;28;20044;-54
2022/05/22 02:59:39;;;;;;;2.72;1.75;;;;;;;21.32;37.80;94423.44;4177119;28;20414;-56
2022/05/22 03:01:41;;;;;;;2.70;1.73;;;;;;;21.32;37.15;94429.59;4177415;28;20539;-54
2022/05/22 03:03:43;;;;;;;6.38;1.80;;;;;;;21.31;36.77;94435.94;4176729;28;20497;-54
2022/05/22 03:08:05;;;;;;;3.38;1.63;;;;;;;21.31;36.13;94437.78;4175847;28;20060;-51
2022/05/22 03:10:08;;;;;;;2.55;1.58;;;;;;;21.27;35.62;94437.44;4177332;28;20050;-54
2022/05/22 03:12:28;;;;;;;;;;;;;;;21.30;35.18;94438.84;4168798;28;20061;-54
2022/05/22 03:14:30;;;;;;;3.53;1.55;;;;;;;21.31;35.12;94432.47;4160561;28;19925;-54
2022/05/22 03:16:32;;;;;;;2.35;1.67;;;;;;;21.31;34.77;94437.78;4160575;28;20501;-51
2022/05/22 03:18:33;;;;;;;4.20;1.80;;;;;;;21.33;34.72;94436.50;4160190;28;20056;-53
2022/05/22 03:20:35;;;;;;;2.58;1.40;;;;;;;21.34;34.46;94438.16;4160606;28;20072;-54
2022/05/22 03:22:37;;;;;;;2.42;1.65;;;;;;;21.40;34.33;94437.22;4159091;28;20061;-52
2022/05/22 03:24:39;;;;;;;3.53;1.80;;;;;;;21.45;34.32;94442.69;4164643;28;20046;-54
2022/05/22 03:26:41;;;;;;;3.88;1.50;;;;;;;21.47;33.85;94443.28;4160867;28;20056;-54
2022/05/22 03:28:43;;;;;;;2.53;1.60;;;;;;;21.51;33.59;94442.78;4160497;28;20049;-54
2022/05/22 03:30:44;;;;;;;3.35;1.35;;;;;;;21.55;32.94;94450.09;4170400;28;20230;-53
2022/05/22 03:32:46;;;;;;;5.90;1.90;;;;;;;21.58;32.70;94443.50;4176257;28;20045;-52
2022/05/22 03:34:48;;;;;;;3.13;1.80;;;;;;;21.60;32.58;94442.22;4176454;28;20439;-51
2022/05/22 03:36:50;;;;;;;3.17;1.50;;;;;;;21.63;32.62;94441.72;4176530;28;20056;-52
2022/05/22 03:38:52;;;;;;;2.92;1.52;;;;;;;21.64;31.81;94442.56;4167767;28;20053;-53
2022/05/22 03:40:54;;;;;;;1.98;1.40;;;;;;;21.64;31.91;94443.38;4160421;28;20049;-53
2022/05/22 03:42:56;;;;;;;2.97;1.50;;;;;;;21.71;31.79;94453.91;4158892;28;20575;-55
2022/05/22 03:44:58;;;;;;;3.88;1.48;;;;;;;21.77;31.50;94455.63;4160250;28;20084;-54
2022/05/22 03:46:59;;;;;;;4.97;1.42;;;;;;;21.80;31.23;94451.69;4163979;28;20044;-54
2022/05/22 03:49:01;;;;;;;2.60;1.30;;;;;;;21.78;31.33;94459.13;4176555;28;20334;-52
2022/05/22 03:51:03;;;;;;;3.88;1.25;;;;;;;21.82;31.24;94458.41;4176612;28;20141;-53
2022/05/22 03:53:05;;;;;;;2.53;1.40;;;;;;;21.85;30.86;94457.13;4175071;28;20052;-53
2022/05/22 03:55:09;;;;;;;4.57;1.30;;;;;;;21.86;30.92;94453.44;4176418;28;20061;-55
2022/05/22 03:57:11;;;;;;;4.13;1.40;;;;;;;21.91;31.27;94456.19;4176671;28;20052;-51
2022/05/22 03:59:12;;;;;;;2.67;1.27;;;;;;;21.94;31.16;94444.22;4176414;28;20504;-54
2022/05/22 04:01:14;;;;;;;2.28;1.33;;;;;;;21.96;31.45;94445.63;4176489;28;20525;-52
2022/05/22 04:03:16;;;;;;;2.70;1.55;;;;;;;22.01;31.42;94440.41;4176340;28;20531;-52
2022/05/22 04:05:18;;;;;;;1.85;1.25;;;;;;;22.03;31.36;94440.97;4175771;28;20053;-50
2022/05/22 04:07:20;;;;;;;2.30;1.60;;;;;;;22.04;31.67;94445.25;4174766;28;20501;-55
2022/05/22 04:09:22;;;;;;;2.67;1.27;;;;;;;22.03;31.33;94453.50;4176267;28;20551;-54
2022/05/22 04:11:23;;;;;;;3.08;1.30;;;;;;;22.06;31.60;94453.81;4173922;28;20114;-56
2022/05/22 04:13:25;;;;;;;2.85;1.60;;;;;;;22.07;31.04;94454.66;4159891;28;20469;-55
2022/05/22 04:15:27;;;;;;;3.15;1.20;;;;;;;22.12;31.67;94454.75;4160004;28;20057;-53
2022/05/22 04:17:29;;;;;;;2.33;1.30;;;;;;;22.17;31.49;94451.34;4159654;28;20083;-51
2022/05/22 04:19:31;;;;;;;4.20;1.42;;;;;;;22.20;31.30;94459.72;4159628;28;20521;-51
2022/05/22 04:21:33;;;;;;;4.07;1.80;;;;;;;22.22;31.42;94457.66;4159452;28;20061;-54
2022/05/22 04:25:57;;;;;;;5.63;1.80;;;;;;;22.22;31.28;94456.78;4158587;28;20049;-53
2022/05/22 04:27:58;;;;;;;;;;;;;;;22.24;31.47;94466.22;4159748;28;20501;-54
2022/05/22 04:30:00;;;;;;;3.10;1.40;;;;;;;22.18;31.15;94459.13;4159618;28;20459;-50
2022/05/22 04:32:03;;;;;;;4.35;1.50;;;;;;;22.16;31.65;94460.44;4159321;28;20136;-53
2022/05/22 04:34:05;;;;;;;4.15;1.67;;;;;;;22.14;32.02;94458.00;4159600;28;20107;-51
2022/05/22 04:36:07;;;;;;;6.45;1.58;;;;;;;22.14;31.93;94462.53;4159987;28;20532;-51
2022/05/22 04:38:10;;;;;;;5.32;1.45;;;;;;;22.13;32.09;94464.34;4162284;28;20131;-50
2022/05/22 04:40:12;;;;;;;3.75;1.33;;;;;;;22.12;32.45;94461.94;4176156;28;20214;-50
2022/05/22 04:42:14;;;;;;;2.50;1.50;;;;;;;22.11;32.11;94460.31;4175720;28;20512;-49
2022/05/22 04:44:16;;;;;;;2.33;1.20;;;;;;;22.07;32.17;94460.78;4176022;28;20436;-52
2022/05/22 04:46:17;;;;;;;5.25;1.50;;;;;;;22.07;32.55;94474.13;4175846;28;20064;-53
2022/05/22 04:48:24;;;;;;;1.90;1.27;;;;;;;22.07;32.46;94474.13;4175465;28;20493;-55
2022/05/22 04:50:26;;;;;;;2.97;1.50;;;;;;;22.14;32.59;94467.84;4175802;28;20079;-52
2022/05/22 04:52:28;;;;;;;3.38;1.30;;;;;;;22.20;32.81;94465.03;4174443;28;20044;-55
2022/05/22 04:54:29;;;;;;;2.15;1.52;;;;;;;22.27;32.72;94465.75;4176017;28;20061;-54
2022/05/22 04:56:31;;;;;;;3.00;1.50;;;;;;;22.34;32.60;94462.94;4175835;28;20053;-54
2022/05/22 04:58:33;;;;;;;2.88;1.52;;;;;;;22.39;32.80;94465.72;4175836;28;20458;-53
2022/05/22 05:00:35;;;;;;;3.63;1.50;;;;;;;22.42;32.67;94465.22;4178734;28;20064;-54
2022/05/22 05:02:38;;;;;;;3.42;1.30;;;;;;;22.44;32.16;94467.66;4178804;28;20045;-54
2022/05/22 05:04:39;;;;;;;2.97;1.50;;;;;;;22.46;32.72;94471.72;4178803;28;20061;-55
2022/05/22 05:06:41;;;;;;;2.08;1.55;;;;;;;22.49;32.36;94465.88;4179441;28;20063;-54
2022/05/22 05:08:43;;;;;;;4.47;1.55;;;;;;;22.52;32.40;94471.78;4177708;28;20060;-54
2022/05/22 05:10:45;;;;;;;3.17;1.45;;;;;;;22.55;32.10;94466.00;4179095;28;20063;-53
2022/05/22 05:12:48;;;;;;;2.60;1.35;;;;;;;22.55;32.02;94466.00;4165303;28;20649;-54
2022/05/22 05:14:50;;;;;;;6.13;1.70;;;;;;;22.54;32.01;94469.69;4162694;28;20110;-52
2022/05/22 05:16:51;;;;;;;2.90;1.58;;;;;;;22.55;32.74;94474.00;4162546;28;20731;-54
2022/05/22 05:18:53;;;;;;;6.00;1.60;;;;;;;22.47;32.91;94467.97;4161955;28;20107;-52
2022/05/22 05:20:58;;;;;;;4.80;1.73;;;;;;;22.49;33.53;94468.56;4162540;28;20422;-54
2022/05/22 05:23:06;;;;;;;3.65;1.52;;;;;;;22.49;33.53;94465.88;4159532;28;20111;-53
2022/05/22 05:25:08;;;;;;;3.75;1.40;;;;;;;22.45;33.44;94478.06;4164423;28;20436;-53
2022/05/22 05:27:10;;;;;;;2.85;1.58;;;;;;;22.40;33.04;94471.84;4164568;28;20782;-53
2022/05/22 05:29:31;;;;;;;3.22;1.30;;;;;;;22.35;33.47;94472.56;4162948;28;20121;-51
2022/05/22 05:31:33;;;;;;;2.30;1.40;;;;;;;22.38;33.15;94479.28;4162385;28;20545;-53
2022/05/22 05:33:41;;;;;;;2.75;1.40;;;;;;;22.36;33.65;94471.50;4161899;28;20064;-53
2022/05/22 05:35:43;;;;;;;5.07;1.63;;;;;;;22.39;33.43;94475.56;4162327;28;20045;-52
2022/05/22 05:37:46;;;;;;;3.90;1.63;;;;;;;22.38;33.38;94473.94;4161653;28;20517;-52
2022/05/22 05:39:48;;;;;;;4.22;1.75;;;;;;;22.44;33.53;94478.34;4163210;28;20551;-52
2022/05/22 05:41:52;;;;;;;5.85;1.50;;;;;;;22.46;33.26;94484.25;4162099;28;20486;-52
2022/05/22 05:43:54;;;;;;;3.58;1.40;;;;;;;22.49;32.66;94471.22;4164935;28;20106;-54
2022/05/22 05:45:56;;;;;;;4.03;1.67;;;;;;;22.55;33.41;94477.47;4169634;28;20060;-50
2022/05/22 05:47:58;;;;;;;3.50;1.48;;;;;;;22.55;32.98;94474.81;4178013;28;20100;-51
2022/05/22 05:50:00;;;;;;;1.92;1.40;;;;;;;22.51;32.94;94480.88;4178742;28;20381;-54
2022/05/22 05:52:02;;;;;;;5.00;1.58;;;;;;;22.46;32.38;94478.91;4177836;28;20389;-54
2022/05/22 05:54:18;;;;;;;6.20;1.70;;;;;;;22.41;33.17;94476.13;4177020;28;20045;-52
2022/05/22 05:56:19;;;;;;;4.93;1.52;;;;;;;22.32;32.96;94491.72;4178441;28;20071;-50
2022/05/22 05:58:26;;;;;;;6.30;1.38;;;;;;;22.29;33.30;94490.34;4178621;28;20136;-56
2022/05/22 06:00:39;;;;;;;3.60;1.50;;;;;;;22.25;33.10;94486.50;4178443;28;20045;-51
2022/05/22 06:02:42;;;;;;;3.95;1.52;;;;;;;22.25;33.26;94499.06;4168321;28;20441;-52
2022/05/22 06:04:44;;;;;;;2.42;1.30;;;;;;;22.19;33.38;94494.63;4174376;28;20114;-51
2022/05/22 06:06:46;;;;;;;5.38;1.70;;;;;;;22.09;33.66;94498.72;4178356;28;20053;-52
2022/05/22 06:08:48;;;;;;;3.22;1.50;;;;;;;21.99;33.50;94495.81;4176790;28;20044;-54
2022/05/22 06:10:52;;;;;;;2.28;1.35;;;;;;;21.98;33.52;94493.38;4177586;28;20068;-53
2022/05/22 06:12:54;;;;;;;6.15;1.45;;;;;;;21.99;33.59;94497.69;4163221;28;20752;-51
2022/05/22 06:14:56;;;;;;;2.90;1.50;;;;;;;21.89;34.05;94501.75;4161872;28;20676;-49
2022/05/22 06:16:58;;;;;;;1.95;1.42;;;;;;;21.87;33.94;94497.69;4161476;28;20076;-51
2022/05/22 06:18:59;;;;;;;4.70;1.90;;;;;;;21.87;34.27;94495.84;4161532;28;20049;-52
2022/05/22 06:21:12;;;;;;;3.85;1.70;;;;;;;21.92;34.55;94497.00;4161702;28;20041;-51
2022/05/22 06:23:14;;;;;;;3.75;1.58;;;;;;;22.00;34.30;94492.09;4160271;28;20050;-52
2022/05/22 06:25:17;;;;;;;2.60;1.45;;;;;;;22.02;34.54;94498.00;4161705;28;20057;-56
2022/05/22 06:27:19;;;;;;;3.90;1.52;;;;;;;22.05;34.42;94494.91;4163691;28;20045;-50
2022/05/22 06:29:21;;;;;;;2.75;1.50;;;;;;;22.04;34.54;94493.25;4178098;28;20057;-53
2022/05/22 06:31:24;;;;;;;4.82;1.50;;;;;;;22.03;34.59;94494.31;4176547;28;20045;-54
2022/05/22 06:33:25;;;;;;;6.68;1.95;;;;;;;22.00;34.81;94488.63;4177719;28;20073;-53
2022/05/22 06:35:27;;;;;;;6.50;1.25;;;;;;;21.97;35.14;94489.91;4177911;28;20110;-51
2022/05/22 06:37:29;;;;;;;2.65;1.40;;;;;;;21.99;34.82;94490.50;4176602;28;20405;-53
2022/05/22 06:39:50;;;;;;;7.10;1.40;;;;;;;21.89;35.54;94496.41;4161354;28;20064;-51
2022/05/22 06:41:52;;;;;;;3.15;1.30;;;;;;;21.94;35.52;94492.22;4161541;28;20603;-51
2022/05/22 06:43:54;;;;;;;2.83;1.60;;;;;;;21.99;35.29;94487.03;4161239;28;20045;-56
2022/05/22 06:45:55;;;;;;;5.20;1.52;;;;;;;22.07;35.63;94484.81;4160860;28;20049;-53
2022/05/22 06:47:57;;;;;;;3.40;1.50;;;;;;;22.13;35.64;94482.22;4161022;28;20498;-55
2022/05/22 06:50:01;;;;;;;2.08;1.30;;;;;;;22.14;35.76;94490.00;4161166;28;20045;-53
2022/05/22 06:52:02;;;;;;;;;;;;;;;22.21;35.73;94487.19;4160740;28;20099;-53
2022/05/22 06:54:04;;;;;;;2.92;1.42;;;;;;;22.35;35.35;94487.75;4160920;28;20288;-53
2022/05/22 06:56:06;;;;;;;4.22;1.35;;;;;;;22.39;35.43;94487.06;4161233;28;20134;-51
2022/05/22 06:58:08;;;;;;;2.40;1.40;;;;;;;22.51;35.45;94476.31;4161135;28;20054;-51
2022/05/22 07:00:14;;;;;;;2.15;1.40;;;;;;;22.61;35.39;94483.72;4160859;28;20045;-49
2022/05/22 07:02:16;;;;;;;3.63;1.67;;;;;;;22.72;35.60;94488.19;4160880;28;20474;-53
2022/05/22 07:04:21;;;;;;;5.43;1.40;;;;;;;22.80;35.27;94487.81;4160792;28;20069;-51
2022/05/22 07:06:23;;;;;;;5.18;1.60;;;;;;;22.81;34.92;94481.41;4160932;28;20053;-50
2022/05/22 07:08:24;;;;;;;6.78;1.75;;;;;;;22.77;35.07;94471.44;4159635;28;20189;-54
2022/05/22 07:12:46;;;;;;;2.95;1.80;;;;;;;22.90;35.60;94469.28;4163501;28;20049;-51
2022/05/22 07:14:52;;;;;;;3.40;1.50;;;;;;;23.01;36.00;94469.47;4160606;28;20053;-54
2022/05/22 07:16:54;;;;;;;5.32;1.50;;;;;;;23.01;35.85;94466.81;4160824;28;20061;-54
2022/05/22 07:18:57;;;;;;;4.43;1.50;;;;;;;23.01;35.93;94467.63;4160488;28;20049;-55
2022/05/22 07:20:58;;;;;;;5.45;1.35;;;;;;;22.90;35.42;94461.25;4159186;28;20252;-51
2022/05/22 07:23:00;;;;;;;4.45;2.00;;;;;;;23.01;35.35;94462.28;4158285;28;20399;-52
2022/05/22 07:25:05;;;;;;;3.70;1.70;;;;;;;23.01;35.71;94467.63;4160630;28;20057;-53
2022/05/22 07:27:06;;;;;;;1.95;1.27;;;;;;;23.03;35.58;94467.38;4162606;28;20120;-51
2022/05/22 07:29:08;;;;;;;8.43;1.60;;;;;;;23.02;35.75;94471.91;4167363;28;20049;-51
2022/05/22 07:31:21;;;;;;;4.10;1.55;;;;;;;23.06;35.98;94472.25;4160678;28;20495;-54
2022/05/22 07:33:23;;;;;;;5.03;1.48;;;;;;;22.90;36.15;94476.47;4166292;28;20540;-54
2022/05/22 07:35:24;;;;;;;4.07;1.40;;;;;;;22.89;35.81;94473.00;4174044;28;20385;-51
2022/05/22 07:37:26;;;;;;;3.40;1.63;;;;;;;22.85;35.85;94479.88;4175289;28;20053;-54
2022/05/22 07:39:28;;;;;;;5.55;1.85;;;;;;;22.80;35.55;94481.63;4164358;28;20126;-54
2022/05/22 07:41:31;;;;;;;4.72;1.55;;;;;;;22.93;36.10;94480.53;4158937;28;20063;-52
2022/05/22 07:43:32;;;;;;;5.30;2.43;;;;;;;22.60;36.50;94485.56;4160181;28;20374;-51
2022/05/22 07:45:34;;;;;;;5.30;1.90;;;;;;;22.55;36.59;94474.00;4160486;28;20785;-53
2022/05/22 07:47:36;;;;;;;2.83;1.73;;;;;;;22.66;36.62;94475.81;4160025;28;20133;-52
2022/05/22 07:52:04;;;;;;;5.75;2.28;;;;;;;22.54;34.29;94461.69;4159736;28;20579;-53
2022/05/22 07:54:21;;;;;;;3.83;1.85;;;;;;;22.47;35.09;94464.50;4160274;28;20136;-51
2022/05/22 07:56:23;;;;;;;4.22;1.80;;;;;;;22.51;35.74;94452.31;4160203;28;20472;-54
2022/05/22 07:58:26;;;;;;;5.07;2.13;;;;;;;22.63;36.32;94452.25;4159776;28;20045;-52
2022/05/22 08:00:28;;;;;;;5.80;2.70;;;;;;;22.57;37.75;94451.34;4160205;28;20754;-52
2022/05/22 08:02:30;;;;;;;3.47;2.40;;;;;;;22.48;39.02;94450.94;4159962;28;20269;-55
2022/05/22 08:04:32;;;;;;;4.55;2.40;;;;;;;22.18;39.96;94453.81;4159914;28;20116;-62
2022/05/22 08:06:34;;;;;;;5.80;2.22;;;;;;;21.56;41.01;94451.72;4159975;28;20127;-52
2022/05/22 08:08:36;;;;;;;8.18;2.33;;;;;;;21.49;41.43;94440.38;4158713;28;20533;-54
2022/05/22 08:10:46;;;;;;;4.68;2.08;;;;;;;21.61;41.35;94425.16;4175684;28;20051;-51
2022/05/22 08:12:49;;;;;;;2.92;1.70;;;;;;;21.51;40.89;94427.63;4162337;28;20523;-51
2022/05/22 08:14:51;;;;;;;7.43;1.75;;;;;;;21.36;40.52;94436.06;4170345;28;20053;-53
2022/05/22 08:16:54;;;;;;;5.55;2.28;;;;;;;21.13;41.31;94428.06;4176474;28;20114;-56
2022/05/22 08:18:56;;;;;;;6.10;2.23;;;;;;;21.10;41.35;94421.38;4175922;28;20207;-54
2022/05/22 08:20:57;;;;;;;5.43;2.80;;;;;;;21.14;41.44;94427.03;4176231;28;20496;-53
2022/05/22 08:23:01;;;;;;;8.43;2.70;;;;;;;21.26;41.49;94425.97;4174705;28;20053;-55
2022/05/22 08:25:04;;;;;;;9.40;3.17;;;;;;;21.49;41.50;94421.72;4176326;28;20147;-51
2022/05/22 08:27:06;;;;;;;7.50;2.70;;;;;;;21.58;41.11;94417.66;4176198;28;20462;-56
2022/05/22 08:29:08;;;;;;;4.68;2.63;;;;;;;21.77;41.43;94412.97;4162492;28;20103;-53
2022/05/22 08:31:11;;;;;;;5.97;2.78;;;;;;;21.78;41.92;94405.78;4159734;28;20053;-53
2022/05/22 08:33:14;;;;;;;7.55;2.92;;;;;;;21.91;41.72;94407.38;4159317;28;20563;-52
2022/05/22 08:35:21;;;;;;;8.65;3.13;;;;;;;22.19;41.92;94403.91;4159705;28;20106;-53
2022/05/22 08:37:23;;;;;;;5.53;2.40;;;;;;;22.39;41.55;94398.16;4158569;28;20553;-54
2022/05/22 08:39:24;;;;;;;8.13;2.40;;;;;;;22.36;41.29;94407.47;4162430;28;20116;-54
2022/05/22 08:41:48;;;;;;;6.38;2.75;;;;;;;22.30;41.57;94400.41;4159387;28;20118;-56
2022/05/22 08:44:11;;;;;;;5.90;2.60;;;;;;;21.87;41.45;94393.69;4158110;28;20049;-53
2022/05/22 08:46:23;;;;;;;5.00;2.15;;;;;;;21.94;41.38;94405.06;4158072;28;20139;-54
2022/05/22 08:48:29;;;;;;;4.38;2.05;;;;;;;22.07;40.77;94410.09;4159354;28;20068;-56
2022/05/22 08:50:32;;;;;;;4.60;2.15;;;;;;;22.09;41.21;94412.53;4159496;28;20119;-54
2022/05/22 08:52:55;;;;;;;6.20;2.00;;;;;;;22.26;40.56;94400.09;4158428;28;20076;-52
2022/05/22 08:55:03;;;;;;;5.70;2.65;;;;;;;22.25;40.67;94403.00;4159675;28;20576;-54
2022/05/22 08:59:39;;;;;;;3.72;1.88;;;;;;;21.40;42.86;94420.41;4158672;28;20050;-56
2022/05/22 09:01:44;;;;;;;4.20;1.67;;;;;;;21.33;42.91;94415.19;4159784;28;20336;-51
2022/05/22 09:04:18;;;;;;;3.85;2.25;;;;;;;21.27;43.35;94410.81;4157748;28;20142;-55
2022/05/22 09:06:26;;;;;;;6.15;2.15;;;;;;;21.32;43.19;94423.44;4157729;28;20070;-54
2022/05/22 09:08:41;;;;;;;5.68;2.25;;;;;;;21.38;42.59;94419.81;4156919;28;20051;-55
2022/05/22 09:11:08;;;;;;;4.40;2.25;;;;;;;21.52;42.19;94413.25;4174623;28;20466;-55
2022/05/22 09:13:31;;;;;;;4.70;2.35;;;;;;;21.55;42.22;94419.97;4154454;28;20094;-54
2022/05/22 09:15:49;;;;;;;10.05;2.55;;;;;;;21.40;43.03;94418.56;4159539;28;20054;-55
2022/05/22 09:18:00;;;;;;;7.05;2.22;;;;;;;21.41;42.95;94417.56;4157945;28;20076;-53
2022/05/22 09:20:10;;;;;;;4.50;1.83;;;;;;;21.55;43.29;94411.97;4159653;28;20123;-54
2022/05/22 09:22:54;;;;;;;4.38;2.55;;;;;;;21.74;42.83;94408.09;4158276;28;20076;-54
2022/05/22 09:25:08;;;;;;;7.28;2.53;;;;;;;21.87;42.93;94409.69;4158183;28;20746;-55
2022/05/22 09:27:17;;;;;;;4.60;2.10;;;;;;;21.94;42.56;94404.22;4159783;28;20057;-56
2022/05/22 09:29:31;;;;;;;7.03;2.53;;;;;;;22.07;42.18;94396.78;4158835;28;20083;-53
2022/05/22 09:32:00;;;;;;;3.40;1.90;;;;;;;22.17;41.79;94398.00;4164772;28;20344;-54
2022/05/22 09:34:10;;;;;;;4.28;2.03;;;;;;;22.29;41.88;94394.28;4175570;28;20497;-53
2022/05/22 09:36:35;;;;;;;3.63;2.10;;;;;;;22.43;41.84;94394.78;4175664;28;20106;-52
2022/05/22 09:39:31;;;;;;;3.60;1.60;;;;;;;22.60;41.11;94388.66;4166222;28;20411;-53
2022/05/22 09:42:03;;;;;;;3.70;1.65;;;;;;;22.65;40.69;94386.06;4156241;28;20438;-52
2022/05/22 09:44:24;;;;;;;4.85;1.83;;;;;;;22.65;40.36;94381.56;4159154;28;20111;-55
2022/05/22 09:47:07;;;;;;;5.72;1.95;;;;;;;22.76;39.42;94374.50;4161711;28;20049;-54
2022/05/22 09:49:37;;;;;;;3.53;1.38;;;;;;;22.79;39.19;94376.69;4162127;28;20126;-51
2022/05/22 09:51:38;;;;;;;3.85;1.73;;;;;;;23.18;38.31;94368.75;4160769;28;20101;-54
2022/05/22 09:53:59;;;;;;;5.70;1.60;;;;;;;23.36;37.99;94369.53;4160509;28;20388;-54
2022/05/22 09:56:32;;;;;;;3.17;1.50;;;;;;;23.59;38.08;94361.28;4161836;28;20106;-54
2022/05/22 09:58:34;;;;;;;;;;;;;;;23.69;37.86;94364.09;4162540;28;20090;-54
2022/05/22 10:00:39;;;;;;;3.95;1.40;;;;;;;23.66;37.41;94355.75;4162000;28;20458;-51
2022/05/22 10:02:53;;;;;;;7.63;1.30;;;;;;;23.62;37.27;94351.97;4161480;28;20487;-54